Time;durP1;ratioP1;P1;durP2;ratioP2;P2;SDS_P1;SDS_P2;PMS_P1;PMS_P2;Temp;Humidity;BMP_temperature;BMP_pressure;BME280_temperature;BME280_humidity;BME280_pressure;Samples;Min_cycle;Max_cycle;Signal;HPM_P1;HPM_P2
2022/07/18 00:01:35;;;;;;;0.10;0.10;;;15.90;99.90;;;;;;5000201;28;20553;-79
2022/07/18 00:04:01;;;;;;;0.10;0.10;;;15.90;99.90;;;;;;5029271;28;20198;-80
2022/07/18 00:06:27;;;;;;;0.10;0.10;;;15.90;99.90;;;;;;5029126;28;20446;-80
2022/07/18 00:08:53;;;;;;;0.10;0.10;;;15.90;99.90;;;;;;5012128;28;20516;-79
2022/07/18 00:11:19;;;;;;;0.10;0.10;;;15.80;99.90;;;;;;5017464;28;20535;-79
2022/07/18 00:13:44;;;;;;;0.10;0.10;;;15.80;99.90;;;;;;5007627;28;20723;-79
2022/07/18 00:16:10;;;;;;;0.10;0.10;;;15.70;99.90;;;;;;5015777;28;20454;-79
2022/07/18 00:18:36;;;;;;;0.10;0.10;;;15.70;99.90;;;;;;5007082;28;20593;-79
2022/07/18 00:21:01;;;;;;;0.10;0.10;;;15.70;99.90;;;;;;5007194;28;20192;-79
2022/07/18 00:23:27;;;;;;;0.10;0.10;;;15.70;99.90;;;;;;5029444;28;20184;-79
2022/07/18 00:25:52;;;;;;;0.10;0.10;;;15.70;99.90;;;;;;5020118;28;20196;-79
2022/07/18 00:28:19;;;;;;;0.10;0.10;;;15.50;99.90;;;;;;5019027;28;20552;-80
2022/07/18 00:30:44;;;;;;;0.10;0.10;;;15.40;99.90;;;;;;5020123;28;20596;-79
2022/07/18 00:33:10;;;;;;;0.10;0.10;;;15.40;99.90;;;;;;5024096;28;20450;-80
2022/07/18 00:35:36;;;;;;;0.10;0.10;;;15.30;99.90;;;;;;5010579;28;20211;-80
2022/07/18 00:38:02;;;;;;;0.10;0.10;;;15.40;99.90;;;;;;5024802;28;20279;-79
2022/07/18 00:40:28;;;;;;;0.10;0.10;;;15.30;99.90;;;;;;5017448;28;20199;-79
2022/07/18 00:42:54;;;;;;;0.10;0.10;;;15.30;99.90;;;;;;4997649;28;21122;-80
2022/07/18 00:45:19;;;;;;;0.10;0.10;;;15.30;99.90;;;;;;5021641;28;20484;-80
2022/07/18 00:47:45;;;;;;;0.10;0.10;;;15.40;99.90;;;;;;5029570;28;20698;-80
2022/07/18 00:50:11;;;;;;;0.10;0.10;;;15.40;99.90;;;;;;5005489;28;20628;-79
2022/07/18 00:52:37;;;;;;;0.10;0.10;;;15.50;99.90;;;;;;5028984;28;20541;-79
2022/07/18 00:55:05;;;;;;;0.10;0.10;;;15.50;99.90;;;;;;5008800;28;20184;-79
2022/07/18 00:57:30;;;;;;;0.10;0.10;;;15.60;99.90;;;;;;5011815;28;20500;-79
2022/07/18 01:02:41;;;;;;;0.10;0.10;;;15.50;99.90;;;;;;5035226;28;20201;-80
2022/07/18 01:05:08;;;;;;;0.10;0.10;;;15.50;99.90;;;;;;5027581;28;20443;-79
2022/07/18 01:07:37;;;;;;;0.10;0.10;;;15.50;99.90;;;;;;5027560;28;20199;-79
2022/07/18 01:10:04;;;;;;;0.10;0.10;;;15.50;99.90;;;;;;5003940;28;20474;-80
2022/07/18 01:12:30;;;;;;;0.10;0.10;;;15.40;99.90;;;;;;5001368;28;20457;-79
2022/07/18 01:14:57;;;;;;;0.10;0.10;;;15.30;99.90;;;;;;5012571;28;20450;-79
2022/07/18 01:17:23;;;;;;;0.10;0.10;;;15.30;99.90;;;;;;5019630;28;20443;-79
2022/07/18 01:19:49;;;;;;;0.10;0.10;;;15.30;99.90;;;;;;5024797;28;20938;-80
2022/07/18 01:22:17;;;;;;;0.10;0.10;;;15.30;99.90;;;;;;5021710;28;20282;-79
2022/07/18 01:24:42;;;;;;;0.10;0.10;;;15.20;99.90;;;;;;5021331;28;20196;-80
2022/07/18 01:27:08;;;;;;;0.10;0.10;;;15.40;99.90;;;;;;5027266;28;20450;-79
2022/07/18 01:29:34;;;;;;;0.10;0.10;;;15.30;99.90;;;;;;5025653;28;20319;-80
2022/07/18 01:32:07;;;;;;;0.10;0.10;;;15.30;99.90;;;;;;5023772;28;20526;-80
2022/07/18 01:34:32;;;;;;;0.10;0.10;;;15.50;99.90;;;;;;5019665;28;20214;-80
2022/07/18 01:36:59;;;;;;;0.10;0.10;;;15.60;99.90;;;;;;5032110;28;20465;-79
2022/07/18 01:39:24;;;;;;;0.10;0.10;;;15.50;99.90;;;;;;5020612;28;20652;-79
2022/07/18 01:42:02;;;;;;;0.10;0.10;;;15.60;99.90;;;;;;5018744;28;20489;-79
2022/07/18 01:44:28;;;;;;;0.10;0.10;;;15.50;99.90;;;;;;5015924;28;20187;-79
2022/07/18 01:46:54;;;;;;;0.10;0.10;;;15.50;99.90;;;;;;5010931;28;20484;-79
2022/07/18 01:49:20;;;;;;;0.10;0.10;;;15.60;99.90;;;;;;5006472;28;20438;-80
2022/07/18 01:51:46;;;;;;;0.10;0.10;;;15.60;99.90;;;;;;5025499;28;20199;-80
2022/07/18 01:54:12;;;;;;;0.10;0.10;;;15.60;99.90;;;;;;5018220;28;20925;-80
2022/07/18 01:56:38;;;;;;;0.10;0.10;;;15.60;99.90;;;;;;5009441;28;20443;-80
2022/07/18 01:59:03;;;;;;;0.10;0.10;;;15.40;99.90;;;;;;5008068;28;20207;-80
2022/07/18 02:01:29;;;;;;;0.10;0.10;;;15.60;99.90;;;;;;5020820;28;20233;-80
2022/07/18 02:03:54;;;;;;;0.10;0.10;;;15.60;99.90;;;;;;5028605;28;20187;-79
2022/07/18 02:06:20;;;;;;;0.10;0.10;;;15.60;99.90;;;;;;5024575;28;20184;-79
2022/07/18 02:08:45;;;;;;;0.10;0.10;;;15.60;99.90;;;;;;5003382;28;20651;-79
2022/07/18 02:11:11;;;;;;;0.10;0.10;;;15.60;99.90;;;;;;5014872;28;20223;-79
2022/07/18 02:13:37;;;;;;;0.10;0.10;;;15.60;99.90;;;;;;5024591;28;20731;-79
2022/07/18 02:16:02;;;;;;;0.10;0.10;;;15.60;99.90;;;;;;5024029;28;20187;-79
2022/07/18 02:18:31;;;;;;;0.10;0.10;;;15.60;99.90;;;;;;5011148;28;20216;-80
2022/07/18 02:20:58;;;;;;;0.10;0.10;;;15.60;99.90;;;;;;5024018;28;20548;-79
2022/07/18 02:23:23;;;;;;;0.10;0.10;;;15.60;99.90;;;;;;5021320;28;20551;-80
2022/07/18 02:25:49;;;;;;;0.10;0.10;;;15.50;99.90;;;;;;5008137;28;20454;-80
2022/07/18 02:28:14;;;;;;;0.10;0.10;;;15.50;99.90;;;;;;5022218;28;20880;-80
2022/07/18 02:30:40;;;;;;;0.10;0.10;;;15.50;99.90;;;;;;5022623;28;20761;-80
2022/07/18 02:33:05;;;;;;;0.10;0.10;;;15.60;99.90;;;;;;5024683;28;20573;-80
2022/07/18 02:35:31;;;;;;;0.10;0.10;;;15.60;99.90;;;;;;5027225;28;20266;-80
2022/07/18 02:37:56;;;;;;;0.10;0.10;;;15.50;99.90;;;;;;5026492;28;20206;-80
2022/07/18 02:40:22;;;;;;;0.10;0.10;;;15.50;99.90;;;;;;5018805;28;20192;-80
2022/07/18 02:42:48;;;;;;;0.10;0.10;;;15.50;99.90;;;;;;5009590;28;20595;-80
2022/07/18 02:45:14;;;;;;;0.10;0.10;;;15.40;99.90;;;;;;5027088;28;20191;-79
2022/07/18 02:47:40;;;;;;;0.10;0.10;;;15.50;99.90;;;;;;5008642;28;20218;-79
2022/07/18 02:50:06;;;;;;;0.10;0.10;;;15.50;99.90;;;;;;5018327;28;20863;-79
2022/07/18 02:52:31;;;;;;;0.10;0.10;;;15.40;99.90;;;;;;5023818;28;20445;-80
2022/07/18 02:54:57;;;;;;;0.10;0.10;;;15.40;99.90;;;;;;5024122;28;20926;-79
2022/07/18 02:57:23;;;;;;;0.10;0.10;;;15.30;99.90;;;;;;5010863;28;20239;-79
2022/07/18 02:59:49;;;;;;;0.10;0.10;;;15.30;99.90;;;;;;5018425;28;20192;-80
2022/07/18 03:02:14;;;;;;;0.10;0.10;;;15.20;99.90;;;;;;5016375;28;20526;-80
2022/07/18 03:04:40;;;;;;;0.10;0.10;;;15.20;99.90;;;;;;5018079;28;20199;-79
2022/07/18 03:07:05;;;;;;;0.10;0.10;;;15.20;99.90;;;;;;5002502;28;20192;-79
2022/07/18 03:09:31;;;;;;;0.10;0.10;;;15.20;99.90;;;;;;5028013;28;20195;-79
2022/07/18 03:11:56;;;;;;;0.10;0.10;;;15.20;99.90;;;;;;5017560;28;20192;-80
2022/07/18 03:14:23;;;;;;;0.10;0.10;;;15.20;99.90;;;;;;5026390;28;20266;-80
2022/07/18 03:16:49;;;;;;;0.10;0.10;;;15.20;99.90;;;;;;5008309;28;20197;-80
2022/07/18 03:19:14;;;;;;;0.10;0.10;;;15.30;99.90;;;;;;5027451;28;20441;-79
2022/07/18 03:21:40;;;;;;;0.10;0.10;;;15.30;99.90;;;;;;4989875;28;20187;-80
2022/07/18 03:24:05;;;;;;;0.10;0.10;;;15.30;99.90;;;;;;5017765;28;20195;-80
2022/07/18 03:26:31;;;;;;;0.10;0.10;;;15.20;99.90;;;;;;5026437;28;20558;-79
2022/07/18 03:28:56;;;;;;;0.10;0.10;;;15.20;99.90;;;;;;5026982;28;20266;-80
2022/07/18 03:31:23;;;;;;;0.10;0.10;;;15.20;99.90;;;;;;5024128;28;20219;-79
2022/07/18 03:33:48;;;;;;;0.10;0.10;;;15.20;99.90;;;;;;5023177;28;20210;-79
2022/07/18 03:36:14;;;;;;;0.10;0.10;;;15.30;99.90;;;;;;5025387;28;20477;-79
2022/07/18 03:38:42;;;;;;;0.10;0.10;;;15.20;99.90;;;;;;5020104;28;20651;-80
2022/07/18 03:41:10;;;;;;;0.10;0.10;;;15.30;99.90;;;;;;5009121;28;20666;-79
2022/07/18 03:43:37;;;;;;;0.10;0.10;;;15.40;99.90;;;;;;5020483;28;20840;-80
2022/07/18 03:46:03;;;;;;;0.10;0.10;;;15.40;99.90;;;;;;5022084;28;20453;-79
2022/07/18 03:48:28;;;;;;;0.10;0.10;;;15.40;99.90;;;;;;5012337;28;20434;-79
2022/07/18 03:50:54;;;;;;;0.10;0.10;;;15.40;99.90;;;;;;5010548;28;20501;-80
2022/07/18 03:53:19;;;;;;;0.10;0.10;;;15.30;99.90;;;;;;5003624;28;20180;-80
2022/07/18 03:55:45;;;;;;;0.10;0.10;;;15.40;99.90;;;;;;5015086;28;20196;-79
2022/07/18 03:58:11;;;;;;;0.10;0.10;;;15.50;99.90;;;;;;5020612;28;20254;-79
2022/07/18 04:00:36;;;;;;;0.10;0.10;;;15.50;99.90;;;;;;5015618;28;20746;-79
2022/07/18 04:03:02;;;;;;;0.10;0.10;;;15.50;99.90;;;;;;5027170;28;20215;-80
2022/07/18 04:05:28;;;;;;;0.10;0.10;;;15.50;99.90;;;;;;5025628;28;20199;-80
2022/07/18 04:07:53;;;;;;;0.10;0.10;;;15.50;99.90;;;;;;5028572;28;20266;-80
2022/07/18 04:10:19;;;;;;;0.10;0.10;;;15.50;99.90;;;;;;5021862;28;20215;-79
2022/07/18 04:12:52;;;;;;;0.10;0.10;;;15.60;99.90;;;;;;5027406;28;20195;-80
2022/07/18 04:15:20;;;;;;;0.10;0.10;;;15.60;99.90;;;;;;5022292;28;20187;-80
2022/07/18 04:17:45;;;;;;;0.10;0.10;;;15.70;99.90;;;;;;5025465;28;20449;-80
2022/07/18 04:20:12;;;;;;;0.10;0.10;;;15.60;99.90;;;;;;5023528;28;20457;-80
2022/07/18 04:22:50;;;;;;;0.10;0.10;;;15.70;99.90;;;;;;5012235;28;20196;-80
2022/07/18 04:25:16;;;;;;;0.10;0.10;;;15.70;99.90;;;;;;5028509;28;20445;-80
2022/07/18 04:27:42;;;;;;;0.10;0.10;;;15.80;99.90;;;;;;4999991;28;20443;-79
2022/07/18 04:30:08;;;;;;;0.10;0.10;;;15.80;99.90;;;;;;5025161;28;20474;-81
2022/07/18 04:32:33;;;;;;;0.10;0.10;;;15.80;99.90;;;;;;4996131;28;20202;-79
2022/07/18 04:34:59;;;;;;;0.10;0.10;;;15.80;99.90;;;;;;5024455;28;20446;-79
2022/07/18 04:37:24;;;;;;;0.10;0.10;;;15.90;99.90;;;;;;5027520;28;20195;-79
2022/07/18 04:39:50;;;;;;;0.10;0.10;;;15.90;99.90;;;;;;5031857;28;20623;-79
2022/07/18 04:42:15;;;;;;;0.10;0.10;;;15.90;99.90;;;;;;5000895;28;20203;-79
2022/07/18 04:44:41;;;;;;;0.10;0.10;;;15.90;99.90;;;;;;5015586;28;20184;-80
2022/07/18 04:47:06;;;;;;;0.10;0.10;;;15.90;99.90;;;;;;5022383;28;20196;-79
2022/07/18 04:49:32;;;;;;;0.10;0.10;;;16.00;99.90;;;;;;5014718;28;20589;-79
2022/07/18 04:51:57;;;;;;;0.10;0.10;;;16.00;99.90;;;;;;5026915;28;20609;-79
2022/07/18 04:54:23;;;;;;;0.10;0.10;;;15.90;99.90;;;;;;5031268;28;20191;-80
2022/07/18 04:56:49;;;;;;;0.10;0.10;;;16.00;99.90;;;;;;5010201;28;20278;-79
2022/07/18 04:59:15;;;;;;;0.10;0.10;;;16.00;99.90;;;;;;5023582;28;20912;-79
2022/07/18 05:01:40;;;;;;;0.10;0.10;;;16.10;99.90;;;;;;5024710;28;20451;-79
2022/07/18 05:04:06;;;;;;;0.10;0.10;;;16.10;99.90;;;;;;5020470;28;20191;-79
2022/07/18 05:06:31;;;;;;;0.10;0.10;;;16.10;99.90;;;;;;5028161;28;20187;-79
2022/07/18 05:08:57;;;;;;;0.10;0.10;;;16.20;99.90;;;;;;5027147;28;20195;-79
2022/07/18 05:11:22;;;;;;;0.10;0.10;;;16.30;99.90;;;;;;5033469;28;20227;-80
2022/07/18 05:13:48;;;;;;;0.10;0.10;;;16.40;99.90;;;;;;5026002;28;20617;-80
2022/07/18 05:16:13;;;;;;;0.10;0.10;;;16.50;99.90;;;;;;5027471;28;20769;-79
2022/07/18 05:18:39;;;;;;;0.10;0.10;;;16.50;99.90;;;;;;5030030;28;20188;-79
2022/07/18 05:21:04;;;;;;;0.10;0.10;;;16.60;99.90;;;;;;5027887;28;20226;-80
2022/07/18 05:23:30;;;;;;;0.10;0.10;;;16.60;99.90;;;;;;5025167;28;20202;-80
2022/07/18 05:25:55;;;;;;;0.10;0.10;;;16.60;99.90;;;;;;5027346;28;20187;-80
2022/07/18 05:28:21;;;;;;;0.10;0.10;;;16.50;99.90;;;;;;5028153;28;20233;-79
2022/07/18 05:30:46;;;;;;;0.10;0.10;;;16.60;99.90;;;;;;5031346;28;20215;-80
2022/07/18 05:33:12;;;;;;;0.10;0.10;;;16.70;99.90;;;;;;5021527;28;20188;-80
2022/07/18 05:35:38;;;;;;;0.10;0.10;;;16.70;99.90;;;;;;5031492;28;20599;-80
2022/07/18 05:38:03;;;;;;;0.10;0.10;;;16.80;99.90;;;;;;5028890;28;20192;-80
2022/07/18 05:40:29;;;;;;;0.10;0.10;;;16.80;99.90;;;;;;5022941;28;20632;-81
2022/07/18 05:42:55;;;;;;;0.10;0.10;;;16.70;99.90;;;;;;5028146;28;20707;-81
2022/07/18 05:45:22;;;;;;;0.10;0.10;;;16.70;99.90;;;;;;5034213;28;20226;-80
2022/07/18 05:47:48;;;;;;;0.10;0.10;;;16.80;99.90;;;;;;5022125;28;20894;-80
2022/07/18 05:50:13;;;;;;;0.10;0.10;;;16.80;99.90;;;;;;5019600;28;20474;-80
2022/07/18 05:52:39;;;;;;;0.10;0.10;;;16.80;99.90;;;;;;5030054;28;20199;-80
2022/07/18 05:55:05;;;;;;;0.10;0.10;;;16.80;99.90;;;;;;5025194;28;20204;-80
2022/07/18 05:57:31;;;;;;;0.10;0.10;;;16.70;99.90;;;;;;5025226;28;20267;-79
2022/07/18 05:59:56;;;;;;;0.10;0.10;;;16.70;99.90;;;;;;5020077;28;20450;-80
2022/07/18 06:02:22;;;;;;;0.10;0.10;;;16.70;99.90;;;;;;5009512;28;20188;-80
2022/07/18 06:04:48;;;;;;;0.10;0.10;;;16.70;99.90;;;;;;5008430;28;20189;-80
2022/07/18 06:07:13;;;;;;;0.10;0.10;;;16.70;99.90;;;;;;5011146;28;20188;-80
2022/07/18 06:09:39;;;;;;;0.10;0.10;;;16.60;99.90;;;;;;4991109;28;20293;-81
2022/07/18 06:12:05;;;;;;;0.10;0.10;;;16.70;99.90;;;;;;5008051;28;20648;-81
2022/07/18 06:14:31;;;;;;;0.10;0.10;;;16.80;99.90;;;;;;5011812;28;20203;-80
2022/07/18 06:16:58;;;;;;;0.10;0.10;;;16.90;99.90;;;;;;5007019;28;20452;-81
2022/07/18 06:19:24;;;;;;;0.10;0.10;;;17.00;99.90;;;;;;5015663;28;21008;-81
2022/07/18 06:21:50;;;;;;;0.10;0.10;;;17.00;99.90;;;;;;5031624;28;20906;-79
2022/07/18 06:24:16;;;;;;;0.10;0.10;;;17.10;99.90;;;;;;4993112;28;20450;-80
2022/07/18 06:26:41;;;;;;;0.10;0.10;;;17.20;99.90;;;;;;4986824;28;20192;-80
2022/07/18 06:29:07;;;;;;;0.10;0.10;;;17.30;99.90;;;;;;5003131;28;20203;-80
2022/07/18 06:31:32;;;;;;;0.10;0.10;;;17.40;99.90;;;;;;5013003;28;20246;-80
2022/07/18 06:33:59;;;;;;;0.10;0.10;;;17.40;99.90;;;;;;5011713;28;20185;-80
2022/07/18 06:36:25;;;;;;;0.10;0.10;;;17.50;99.90;;;;;;5010280;28;20192;-80
2022/07/18 06:38:51;;;;;;;0.10;0.10;;;17.40;99.90;;;;;;5011513;28;20424;-80
2022/07/18 06:41:17;;;;;;;0.10;0.10;;;17.50;99.90;;;;;;5006818;28;20644;-80
2022/07/18 06:43:43;;;;;;;0.10;0.10;;;17.60;99.90;;;;;;5007568;28;20443;-81
2022/07/18 06:46:08;;;;;;;0.10;0.10;;;17.60;99.90;;;;;;4979390;28;20458;-80
2022/07/18 06:48:35;;;;;;;0.10;0.10;;;17.70;99.90;;;;;;5007427;28;20659;-80
2022/07/18 06:51:01;;;;;;;0.10;0.10;;;17.60;99.90;;;;;;4995972;28;20743;-81
2022/07/18 06:53:28;;;;;;;0.10;0.10;;;17.60;99.90;;;;;;5008792;28;20943;-80
2022/07/18 06:55:54;;;;;;;0.10;0.10;;;17.70;99.90;;;;;;5008080;28;20988;-80
2022/07/18 06:58:19;;;;;;;0.10;0.10;;;17.80;99.90;;;;;;5012989;28;20981;-80
2022/07/18 07:00:45;;;;;;;0.10;0.10;;;17.80;99.90;;;;;;4999887;28;20453;-81
2022/07/18 07:03:10;;;;;;;0.10;0.10;;;17.90;99.90;;;;;;5009103;28;20184;-80
2022/07/18 07:05:36;;;;;;;0.10;0.10;;;18.00;99.90;;;;;;5007098;28;20200;-82
2022/07/18 07:08:01;;;;;;;0.10;0.10;;;18.10;99.90;;;;;;4992034;28;20180;-81
2022/07/18 07:10:27;;;;;;;0.10;0.10;;;18.10;99.90;;;;;;4997241;28;20315;-81
2022/07/18 07:12:53;;;;;;;0.10;0.10;;;18.40;99.90;;;;;;5001238;28;20204;-80
2022/07/18 07:15:21;;;;;;;0.10;0.10;;;18.50;99.90;;;;;;5000536;28;20196;-81
2022/07/18 07:17:46;;;;;;;0.10;0.00;;;18.70;99.90;;;;;;4988414;28;20231;-81
2022/07/18 07:20:13;;;;;;;0.10;0.10;;;18.90;99.90;;;;;;5003769;28;20460;-81
2022/07/18 07:22:53;;;;;;;0.10;0.10;;;19.00;99.90;;;;;;5005362;28;20711;-81
2022/07/18 07:25:19;;;;;;;0.10;0.10;;;19.10;99.90;;;;;;5003507;28;20452;-81
2022/07/18 07:27:45;;;;;;;0.10;0.00;;;19.30;99.90;;;;;;5006716;28;20640;-81
2022/07/18 07:30:13;;;;;;;0.10;0.00;;;19.50;99.90;;;;;;5011437;28;21104;-83
2022/07/18 07:32:42;;;;;;;0.10;0.10;;;19.50;99.90;;;;;;5002201;28;20188;-82
2022/07/18 07:35:11;;;;;;;0.10;0.10;;;19.40;99.90;;;;;;4989975;28;20463;-80
2022/07/18 07:37:37;;;;;;;0.10;0.07;;;19.40;99.90;;;;;;4997352;28;20494;-82
2022/07/18 07:40:03;;;;;;;0.10;0.10;;;19.40;99.90;;;;;;5006527;28;20470;-81
2022/07/18 07:42:29;;;;;;;0.10;0.10;;;19.60;99.90;;;;;;4995391;28;20450;-84
2022/07/18 07:44:55;;;;;;;0.10;0.10;;;19.60;99.90;;;;;;5030259;28;20504;-81
2022/07/18 07:47:20;;;;;;;0.10;0.10;;;19.70;99.90;;;;;;5009371;28;20262;-82
2022/07/18 07:49:46;;;;;;;0.10;0.00;;;19.90;99.90;;;;;;5001321;28;20203;-81
2022/07/18 07:52:13;;;;;;;0.10;0.00;;;20.00;99.90;;;;;;5002812;28;20232;-82
2022/07/18 07:54:39;;;;;;;0.10;0.00;;;19.90;99.90;;;;;;5013230;28;20190;-82
2022/07/18 07:57:05;;;;;;;0.10;0.00;;;19.80;99.90;;;;;;5009533;28;20538;-81
2022/07/18 07:59:31;;;;;;;0.10;0.10;;;20.10;99.90;;;;;;4992661;28;20469;-81
2022/07/18 08:01:58;;;;;;;0.10;0.00;;;20.40;99.90;;;;;;5002138;28;20226;-82
2022/07/18 08:04:23;;;;;;;0.10;0.00;;;20.90;99.90;;;;;;5010419;28;20447;-82
2022/07/18 08:06:49;;;;;;;0.10;0.10;;;21.20;99.90;;;;;;5008099;28;20451;-84
2022/07/18 08:09:14;;;;;;;0.10;0.00;;;21.00;99.90;;;;;;5008270;28;20656;-81
2022/07/18 08:11:40;;;;;;;0.10;0.00;;;20.80;99.90;;;;;;4995019;28;20595;-80
2022/07/18 08:14:05;;;;;;;0.10;0.00;;;20.60;99.90;;;;;;5007809;28;20199;-81
2022/07/18 08:16:31;;;;;;;0.10;0.00;;;20.60;99.90;;;;;;4997852;28;20205;-81
2022/07/18 08:18:56;;;;;;;0.10;0.00;;;20.70;99.90;;;;;;4994701;28;20282;-80
2022/07/18 08:21:22;;;;;;;0.10;0.00;;;20.70;99.90;;;;;;5003504;28;20192;-81
2022/07/18 08:23:48;;;;;;;0.10;0.00;;;20.70;99.90;;;;;;5009750;28;20638;-82
2022/07/18 08:26:14;;;;;;;0.10;0.10;;;20.70;99.90;;;;;;5004861;28;20663;-81
2022/07/18 08:28:39;;;;;;;0.10;0.00;;;20.80;99.90;;;;;;5010052;28;20663;-80
2022/07/18 08:31:05;;;;;;;0.10;0.00;;;20.90;99.90;;;;;;5012007;28;20479;-80
2022/07/18 08:33:30;;;;;;;0.10;0.00;;;20.80;99.90;;;;;;5008752;28;20192;-80
2022/07/18 08:35:56;;;;;;;0.10;0.00;;;21.00;99.90;;;;;;5007837;28;20188;-80
2022/07/18 08:38:21;;;;;;;0.10;0.00;;;21.10;99.90;;;;;;5007081;28;20180;-80
2022/07/18 08:40:48;;;;;;;0.10;0.00;;;21.20;99.90;;;;;;4997749;28;20246;-80
2022/07/18 08:43:14;;;;;;;0.10;0.00;;;21.30;99.90;;;;;;5011299;28;20275;-82
2022/07/18 08:45:42;;;;;;;0.10;0.00;;;21.60;99.90;;;;;;4987986;28;20954;-80
2022/07/18 08:48:09;;;;;;;0.10;0.00;;;21.80;99.90;;;;;;4987829;28;20501;-81
2022/07/18 08:50:34;;;;;;;0.10;0.00;;;22.40;99.90;;;;;;4999990;28;20474;-80
2022/07/18 08:53:03;;;;;;;0.10;0.00;;;22.30;99.90;;;;;;5005640;28;20447;-81
2022/07/18 08:55:29;;;;;;;0.10;0.00;;;22.30;99.90;;;;;;5009832;28;20785;-81
2022/07/18 08:57:54;;;;;;;0.10;0.00;;;22.10;99.90;;;;;;4998029;28;20478;-81
2022/07/18 09:00:23;;;;;;;0.10;0.00;;;22.30;99.90;;;;;;5003776;28;20189;-82
2022/07/18 09:02:59;;;;;;;0.10;0.00;;;22.10;99.90;;;;;;5002783;28;20191;-80
2022/07/18 09:05:25;;;;;;;0.10;0.00;;;22.10;99.90;;;;;;5011830;28;20588;-80
2022/07/18 09:07:51;;;;;;;0.10;0.00;;;22.10;99.90;;;;;;5008409;28;20534;-80
2022/07/18 09:10:16;;;;;;;0.10;0.00;;;22.20;99.90;;;;;;5008891;28;20220;-80
2022/07/18 09:12:56;;;;;;;0.10;0.00;;;22.10;99.90;;;;;;5004307;28;20648;-80
2022/07/18 09:15:22;;;;;;;0.10;0.00;;;22.20;99.90;;;;;;5007029;28;20210;-81
2022/07/18 09:17:50;;;;;;;0.10;0.00;;;22.30;99.90;;;;;;5012066;28;20938;-81
2022/07/18 09:20:16;;;;;;;0.10;0.00;;;22.40;99.90;;;;;;5008767;28;20219;-81
2022/07/18 09:22:44;;;;;;;0.10;0.00;;;22.30;99.90;;;;;;5006488;28;20470;-80
2022/07/18 09:25:15;;;;;;;0.10;0.00;;;22.40;99.90;;;;;;5011645;28;20458;-79
2022/07/18 09:27:42;;;;;;;0.10;0.00;;;22.70;99.90;;;;;;5009278;28;20439;-80
2022/07/18 09:30:26;;;;;;;0.10;0.00;;;23.00;99.90;;;;;;5011318;28;20553;-82
2022/07/18 09:33:03;;;;;;;0.10;0.00;;;23.20;99.90;;;;;;5002981;28;20451;-80
2022/07/18 09:35:33;;;;;;;0.10;0.10;;;23.30;99.90;;;;;;5005125;28;21174;-81
2022/07/18 09:38:07;;;;;;;0.10;0.00;;;23.70;99.90;;;;;;5007586;28;20505;-82
2022/07/18 09:40:36;;;;;;;0.10;0.00;;;23.90;99.90;;;;;;5006169;28;20450;-81
2022/07/18 09:43:04;;;;;;;0.10;0.00;;;23.70;99.90;;;;;;5013739;28;20977;-81
2022/07/18 09:45:49;;;;;;;0.10;0.00;;;23.50;99.90;;;;;;5008387;28;20531;-81
2022/07/18 09:48:20;;;;;;;0.10;0.00;;;23.50;99.90;;;;;;5007079;28;20527;-81
2022/07/18 09:50:55;;;;;;;0.10;0.00;;;23.70;99.90;;;;;;5004577;28;20988;-81
2022/07/18 09:53:29;;;;;;;0.10;0.00;;;23.60;99.90;;;;;;5009893;28;21196;-79
2022/07/18 09:55:57;;;;;;;0.10;0.00;;;23.50;99.90;;;;;;4999972;28;20577;-82
2022/07/18 09:58:29;;;;;;;0.10;0.00;;;23.70;99.90;;;;;;5023322;28;20559;-81
2022/07/18 10:00:56;;;;;;;0.10;0.00;;;24.10;99.90;;;;;;5030253;28;20905;-82
2022/07/18 10:03:23;;;;;;;0.10;0.00;;;24.20;99.90;;;;;;4995287;28;20473;-80
2022/07/18 10:05:51;;;;;;;0.10;0.00;;;24.50;99.90;;;;;;5028103;28;20445;-82
2022/07/18 10:08:20;;;;;;;0.10;0.00;;;24.90;99.90;;;;;;5008222;28;20442;-82
2022/07/18 10:10:47;;;;;;;0.10;0.00;;;24.80;99.90;;;;;;5016400;28;20561;-81
2022/07/18 10:13:14;;;;;;;0.10;0.00;;;24.70;99.90;;;;;;5011299;28;20435;-81
2022/07/18 10:15:42;;;;;;;0.10;0.00;;;24.80;99.90;;;;;;5008087;28;20816;-81
2022/07/18 10:18:10;;;;;;;0.10;0.00;;;24.50;99.90;;;;;;5008932;28;20445;-81
2022/07/18 10:20:35;;;;;;;0.10;0.00;;;24.30;99.90;;;;;;5007717;28;20453;-81
2022/07/18 10:23:08;;;;;;;0.10;0.00;;;24.30;99.90;;;;;;5026263;28;20442;-82
2022/07/18 10:25:34;;;;;;;0.10;0.00;;;24.40;99.90;;;;;;5024357;28;20188;-80
2022/07/18 10:28:14;;;;;;;0.10;0.10;;;24.50;99.90;;;;;;5029013;28;20465;-81
2022/07/18 10:30:44;;;;;;;0.10;0.00;;;24.80;99.90;;;;;;5028867;28;20208;-81
2022/07/18 10:33:37;;;;;;;0.10;0.00;;;25.00;99.90;;;;;;5023570;28;20444;-82
2022/07/18 10:36:06;;;;;;;0.10;0.00;;;25.20;99.90;;;;;;5018052;28;20446;-81
2022/07/18 10:38:32;;;;;;;0.10;0.00;;;25.30;99.90;;;;;;5010621;28;20447;-82
2022/07/18 10:41:16;;;;;;;0.10;0.00;;;25.30;99.90;;;;;;5012755;28;21007;-82
2022/07/18 10:43:43;;;;;;;0.10;0.00;;;25.40;99.90;;;;;;5028986;28;20438;-83
2022/07/18 10:46:12;;;;;;;0.10;0.00;;;25.60;99.90;;;;;;5028542;28;20454;-83
2022/07/18 10:48:37;;;;;;;0.10;0.00;;;25.50;99.90;;;;;;5027993;28;20449;-80
2022/07/18 10:51:13;;;;;;;0.10;0.00;;;25.80;99.90;;;;;;5021708;28;20496;-83
2022/07/18 10:53:54;;;;;;;0.10;0.00;;;25.80;99.90;;;;;;5012125;28;20201;-82
2022/07/18 10:56:20;;;;;;;0.10;0.00;;;26.00;99.90;;;;;;5007942;28;20976;-82
2022/07/18 10:58:46;;;;;;;0.10;0.00;;;26.50;99.90;;;;;;5028443;28;20537;-81
2022/07/18 11:01:17;;;;;;;0.10;0.00;;;26.40;99.90;;;;;;5008903;28;21068;-81
2022/07/18 11:03:43;;;;;;;0.10;0.00;;;27.20;99.90;;;;;;5028131;28;20627;-81
2022/07/18 11:06:09;;;;;;;0.10;0.00;;;27.40;99.90;;;;;;5024973;28;20545;-82
2022/07/18 11:08:36;;;;;;;0.10;0.00;;;26.90;99.90;;;;;;5021727;28;20959;-81
2022/07/18 11:11:01;;;;;;;0.10;0.00;;;27.00;99.90;;;;;;5025400;28;20235;-81
2022/07/18 11:13:33;;;;;;;0.10;0.00;;;27.20;99.90;;;;;;5007306;28;20443;-81
2022/07/18 11:16:15;;;;;;;0.10;0.00;;;27.10;99.90;;;;;;5011010;28;20242;-81
2022/07/18 11:18:40;;;;;;;0.10;0.00;;;27.40;99.90;;;;;;5023563;28;20565;-81
2022/07/18 11:21:23;;;;;;;0.10;0.00;;;27.10;99.90;;;;;;5001654;28;21026;-81
2022/07/18 11:23:51;;;;;;;0.10;0.00;;;26.30;99.90;;;;;;5022029;28;20189;-83
2022/07/18 11:26:19;;;;;;;0.10;0.00;;;26.10;99.90;;;;;;5013260;28;20446;-83
2022/07/18 11:28:48;;;;;;;0.10;0.00;;;26.20;99.90;;;;;;5019164;28;20499;-83
2022/07/18 11:31:15;;;;;;;0.10;0.00;;;26.30;99.90;;;;;;5025874;28;20564;-82
2022/07/18 11:33:45;;;;;;;0.10;0.00;;;25.90;99.90;;;;;;5027356;28;21045;-82
2022/07/18 11:36:16;;;;;;;0.10;0.00;;;25.60;99.90;;;;;;5024657;28;20434;-81
2022/07/18 11:38:49;;;;;;;0.10;0.00;;;25.40;99.90;;;;;;5006189;28;21072;-82
2022/07/18 11:41:16;;;;;;;0.10;0.00;;;25.30;99.90;;;;;;5029110;28;20446;-82
2022/07/18 11:43:44;;;;;;;0.10;0.00;;;25.20;99.90;;;;;;5021660;28;20442;-82
2022/07/18 11:46:12;;;;;;;0.10;0.00;;;24.90;99.90;;;;;;5025183;28;20500;-82
2022/07/18 11:48:39;;;;;;;0.10;0.00;;;24.90;99.90;;;;;;5007012;28;20523;-81
2022/07/18 11:51:18;;;;;;;0.10;0.00;;;24.90;99.90;;;;;;5006129;28;20497;-82
2022/07/18 11:53:52;;;;;;;0.10;0.00;;;25.10;99.90;;;;;;5023603;28;20454;-80
2022/07/18 11:56:21;;;;;;;0.10;0.00;;;25.10;99.90;;;;;;5009649;28;20969;-81
2022/07/18 11:58:48;;;;;;;0.10;0.10;;;24.90;99.90;;;;;;5034080;28;20473;-81
2022/07/18 12:01:14;;;;;;;0.10;0.00;;;24.60;99.90;;;;;;5022325;28;20465;-81
2022/07/18 12:03:43;;;;;;;0.10;0.00;;;24.60;99.90;;;;;;5013269;28;20425;-82
2022/07/18 12:06:19;;;;;;;0.10;0.00;;;24.60;99.90;;;;;;5012859;28;20198;-81
2022/07/18 12:08:53;;;;;;;0.10;0.00;;;24.60;99.90;;;;;;5017390;28;20446;-81
2022/07/18 12:11:29;;;;;;;0.10;0.00;;;24.50;99.90;;;;;;5031919;28;20489;-82
2022/07/18 12:13:58;;;;;;;0.10;0.00;;;24.60;99.90;;;;;;5027744;28;20441;-81
2022/07/18 12:16:32;;;;;;;0.10;0.00;;;24.90;99.90;;;;;;5010798;28;20918;-80
2022/07/18 12:19:00;;;;;;;0.10;0.00;;;25.20;99.90;;;;;;5006164;28;20450;-80
2022/07/18 12:21:52;;;;;;;0.10;0.00;;;25.30;99.90;;;;;;5009340;28;20430;-82
2022/07/18 12:24:23;;;;;;;0.10;0.00;;;25.40;99.90;;;;;;5023439;28;20448;-80
2022/07/18 12:27:07;;;;;;;0.10;0.00;;;25.20;99.90;;;;;;5027170;28;21055;-80
2022/07/18 12:29:52;;;;;;;0.10;0.00;;;25.00;99.90;;;;;;5017379;28;20567;-81
2022/07/18 12:32:18;;;;;;;0.10;0.00;;;24.80;99.90;;;;;;5017205;28;20567;-80
2022/07/18 12:35:04;;;;;;;0.10;0.00;;;24.60;99.90;;;;;;5025732;28;20441;-79
2022/07/18 12:37:30;;;;;;;0.10;0.00;;;24.50;99.90;;;;;;5026320;28;20187;-79
2022/07/18 12:39:58;;;;;;;0.10;0.00;;;24.30;99.90;;;;;;5026110;28;20458;-80
2022/07/18 12:42:28;;;;;;;0.10;0.00;;;24.40;99.90;;;;;;5013387;28;20455;-79
2022/07/18 12:44:54;;;;;;;0.10;0.00;;;24.40;99.90;;;;;;5016879;28;21075;-80
2022/07/18 12:47:19;;;;;;;0.10;0.00;;;24.50;99.90;;;;;;5021455;28;20449;-78
2022/07/18 12:49:45;;;;;;;0.10;0.00;;;24.70;99.90;;;;;;5024715;28;20190;-79
2022/07/18 12:52:11;;;;;;;0.10;0.00;;;24.70;99.90;;;;;;5012260;28;20195;-81